sensor_id;sensor_type;location;lat;lon;timestamp;pressure;altitude;pressure_sealevel;temperature;humidity
28310;BME280;15571;50.974;13.936;2023-07-20T00:01:41;99753.31;;;18.59;100.00
28310;BME280;15571;50.974;13.936;2023-07-20T00:04:45;99752.47;;;18.59;100.00
28310;BME280;15571;50.974;13.936;2023-07-20T00:07:47;99741.13;;;18.74;100.00
28310;BME280;15571;50.974;13.936;2023-07-20T00:10:52;99727.88;;;18.74;100.00
28310;BME280;15571;50.974;13.936;2023-07-20T00:13:54;99726.94;;;18.75;100.00
28310;BME280;15571;50.974;13.936;2023-07-20T00:16:57;99725.22;;;18.74;100.00
28310;BME280;15571;50.974;13.936;2023-07-20T00:19:59;99718.19;;;18.73;100.00
28310;BME280;15571;50.974;13.936;2023-07-20T00:23:01;99727.09;;;18.72;100.00
28310;BME280;15571;50.974;13.936;2023-07-20T00:26:03;99725.38;;;18.71;100.00
28310;BME280;15571;50.974;13.936;2023-07-20T00:29:05;99714.75;;;18.71;100.00
28310;BME280;15571;50.974;13.936;2023-07-20T00:32:08;99720.94;;;18.72;100.00
28310;BME280;15571;50.974;13.936;2023-07-20T00:35:10;99713.81;;;18.72;100.00
28310;BME280;15571;50.974;13.936;2023-07-20T00:38:12;99708.47;;;18.74;100.00
28310;BME280;15571;50.974;13.936;2023-07-20T00:41:15;99703.97;;;18.76;100.00
28310;BME280;15571;50.974;13.936;2023-07-20T00:44:18;99714.75;;;18.71;100.00
28310;BME280;15571;50.974;13.936;2023-07-20T00:47:21;99716.78;;;18.66;100.00
28310;BME280;15571;50.974;13.936;2023-07-20T00:50:23;99719.22;;;18.71;100.00
28310;BME280;15571;50.974;13.936;2023-07-20T00:53:28;99730.56;;;18.55;100.00
28310;BME280;15571;50.974;13.936;2023-07-20T00:56:30;99736.69;;;18.56;100.00
28310;BME280;15571;50.974;13.936;2023-07-20T00:59:32;99738.19;;;18.61;100.00
28310;BME280;15571;50.974;13.936;2023-07-20T01:02:35;99723.81;;;18.67;100.00
28310;BME280;15571;50.974;13.936;2023-07-20T01:05:42;99711.47;;;18.66;100.00
28310;BME280;15571;50.974;13.936;2023-07-20T01:08:51;99716.47;;;18.72;100.00
28310;BME280;15571;50.974;13.936;2023-07-20T01:11:59;99719.34;;;18.67;100.00
28310;BME280;15571;50.974;13.936;2023-07-20T01:15:06;99718.81;;;18.61;100.00
28310;BME280;15571;50.974;13.936;2023-07-20T01:18:10;99727.69;;;18.60;100.00
28310;BME280;15571;50.974;13.936;2023-07-20T01:21:13;99721.03;;;18.70;100.00
28310;BME280;15571;50.974;13.936;2023-07-20T01:27:57;99714.25;;;18.63;100.00
28310;BME280;15571;50.974;13.936;2023-07-20T01:31:16;99718.00;;;18.59;100.00
28310;BME280;15571;50.974;13.936;2023-07-20T01:34:18;99714.06;;;18.48;100.00
28310;BME280;15571;50.974;13.936;2023-07-20T01:37:21;99724.53;;;18.51;100.00
28310;BME280;15571;50.974;13.936;2023-07-20T01:40:26;99717.50;;;18.50;100.00
28310;BME280;15571;50.974;13.936;2023-07-20T01:43:28;99712.69;;;18.40;100.00
28310;BME280;15571;50.974;13.936;2023-07-20T01:46:31;99713.78;;;18.35;100.00
28310;BME280;15571;50.974;13.936;2023-07-20T01:49:33;99722.19;;;18.25;100.00
28310;BME280;15571;50.974;13.936;2023-07-20T01:52:35;99722.38;;;18.22;100.00
28310;BME280;15571;50.974;13.936;2023-07-20T01:55:38;99728.06;;;18.12;100.00
28310;BME280;15571;50.974;13.936;2023-07-20T01:58:40;99725.25;;;18.15;100.00
28310;BME280;15571;50.974;13.936;2023-07-20T02:01:43;99725.00;;;18.22;100.00
28310;BME280;15571;50.974;13.936;2023-07-20T02:04:46;99734.22;;;18.13;100.00
28310;BME280;15571;50.974;13.936;2023-07-20T02:07:48;99741.66;;;18.04;100.00
28310;BME280;15571;50.974;13.936;2023-07-20T02:10:54;99739.41;;;17.94;100.00
28310;BME280;15571;50.974;13.936;2023-07-20T02:13:56;99730.47;;;17.98;100.00
28310;BME280;15571;50.974;13.936;2023-07-20T02:16:59;99737.47;;;17.99;100.00
28310;BME280;15571;50.974;13.936;2023-07-20T02:20:03;99737.78;;;17.91;100.00
28310;BME280;15571;50.974;13.936;2023-07-20T02:23:05;99753.97;;;17.83;100.00
28310;BME280;15571;50.974;13.936;2023-07-20T02:26:07;99750.50;;;17.83;100.00
28310;BME280;15571;50.974;13.936;2023-07-20T02:29:09;99756.25;;;17.72;100.00
28310;BME280;15571;50.974;13.936;2023-07-20T02:32:13;99766.97;;;17.69;100.00
28310;BME280;15571;50.974;13.936;2023-07-20T02:35:15;99763.44;;;17.68;100.00
28310;BME280;15571;50.974;13.936;2023-07-20T02:38:17;99762.88;;;17.62;100.00
28310;BME280;15571;50.974;13.936;2023-07-20T02:41:19;99761.06;;;17.62;100.00
28310;BME280;15571;50.974;13.936;2023-07-20T02:44:21;99758.63;;;17.57;100.00
28310;BME280;15571;50.974;13.936;2023-07-20T02:47:25;99761.53;;;17.51;100.00
28310;BME280;15571;50.974;13.936;2023-07-20T02:50:27;99763.44;;;17.48;100.00
28310;BME280;15571;50.974;13.936;2023-07-20T02:53:29;99769.59;;;17.48;100.00
28310;BME280;15571;50.974;13.936;2023-07-20T02:56:31;99769.69;;;17.45;100.00
28310;BME280;15571;50.974;13.936;2023-07-20T02:59:33;99768.84;;;17.45;100.00
28310;BME280;15571;50.974;13.936;2023-07-20T03:02:36;99775.38;;;17.36;100.00
28310;BME280;15571;50.974;13.936;2023-07-20T03:05:40;99771.94;;;17.34;100.00
28310;BME280;15571;50.974;13.936;2023-07-20T03:08:42;99780.94;;;17.30;100.00
28310;BME280;15571;50.974;13.936;2023-07-20T03:11:48;99778.94;;;17.35;100.00
28310;BME280;15571;50.974;13.936;2023-07-20T03:14:52;99786.22;;;17.30;100.00
28310;BME280;15571;50.974;13.936;2023-07-20T03:17:56;99788.94;;;17.28;100.00
28310;BME280;15571;50.974;13.936;2023-07-20T03:20:59;99785.97;;;17.36;100.00
28310;BME280;15571;50.974;13.936;2023-07-20T03:24:01;99789.47;;;17.36;100.00
28310;BME280;15571;50.974;13.936;2023-07-20T03:27:03;99790.28;;;17.38;100.00
28310;BME280;15571;50.974;13.936;2023-07-20T03:30:06;99793.03;;;17.35;100.00
28310;BME280;15571;50.974;13.936;2023-07-20T03:33:11;99790.41;;;17.35;100.00
28310;BME280;15571;50.974;13.936;2023-07-20T03:36:13;99781.53;;;17.36;100.00
28310;BME280;15571;50.974;13.936;2023-07-20T03:39:14;99777.81;;;17.40;100.00
28310;BME280;15571;50.974;13.936;2023-07-20T03:42:16;99773.25;;;17.23;100.00
28310;BME280;15571;50.974;13.936;2023-07-20T03:45:18;99779.38;;;17.24;100.00
28310;BME280;15571;50.974;13.936;2023-07-20T03:48:23;99777.47;;;17.27;100.00
28310;BME280;15571;50.974;13.936;2023-07-20T03:51:25;99780.81;;;17.33;100.00
28310;BME280;15571;50.974;13.936;2023-07-20T03:54:27;99786.94;;;17.33;100.00
28310;BME280;15571;50.974;13.936;2023-07-20T03:57:31;99793.88;;;17.36;100.00
28310;BME280;15571;50.974;13.936;2023-07-20T04:00:33;99795.69;;;17.35;100.00
28310;BME280;15571;50.974;13.936;2023-07-20T04:03:37;99785.91;;;17.37;100.00
28310;BME280;15571;50.974;13.936;2023-07-20T04:06:39;99793.50;;;17.45;100.00
28310;BME280;15571;50.974;13.936;2023-07-20T04:09:41;99789.03;;;17.47;100.00
28310;BME280;15571;50.974;13.936;2023-07-20T04:12:42;99797.78;;;17.49;100.00
28310;BME280;15571;50.974;13.936;2023-07-20T04:15:45;99790.75;;;17.48;100.00
28310;BME280;15571;50.974;13.936;2023-07-20T04:18:48;99785.56;;;17.45;100.00
28310;BME280;15571;50.974;13.936;2023-07-20T04:21:50;99796.34;;;17.40;100.00
28310;BME280;15571;50.974;13.936;2023-07-20T04:24:52;99790.88;;;17.45;100.00
28310;BME280;15571;50.974;13.936;2023-07-20T04:27:54;99787.06;;;17.52;100.00
28310;BME280;15571;50.974;13.936;2023-07-20T04:31:08;99795.75;;;17.56;100.00
28310;BME280;15571;50.974;13.936;2023-07-20T04:34:12;99792.22;;;17.55;100.00
28310;BME280;15571;50.974;13.936;2023-07-20T04:37:14;99792.91;;;17.61;100.00
28310;BME280;15571;50.974;13.936;2023-07-20T04:40:16;99790.00;;;17.67;100.00
28310;BME280;15571;50.974;13.936;2023-07-20T04:43:18;99796.34;;;17.83;100.00
28310;BME280;15571;50.974;13.936;2023-07-20T04:46:23;99782.91;;;17.88;100.00
28310;BME280;15571;50.974;13.936;2023-07-20T04:49:27;99794.88;;;17.98;100.00
28310;BME280;15571;50.974;13.936;2023-07-20T04:52:28;99780.69;;;18.20;100.00
28310;BME280;15571;50.974;13.936;2023-07-20T04:55:32;99782.91;;;18.10;100.00
28310;BME280;15571;50.974;13.936;2023-07-20T04:58:36;99789.22;;;18.27;100.00
28310;BME280;15571;50.974;13.936;2023-07-20T05:01:40;99786.25;;;18.54;100.00
28310;BME280;15571;50.974;13.936;2023-07-20T05:04:43;99780.75;;;18.58;100.00
28310;BME280;15571;50.974;13.936;2023-07-20T05:07:45;99786.63;;;18.65;100.00
28310;BME280;15571;50.974;13.936;2023-07-20T05:10:47;99768.31;;;18.79;100.00
28310;BME280;15571;50.974;13.936;2023-07-20T05:13:50;99770.81;;;18.63;100.00
28310;BME280;15571;50.974;13.936;2023-07-20T05:16:52;99777.38;;;18.55;100.00
28310;BME280;15571;50.974;13.936;2023-07-20T05:19:56;99776.31;;;18.59;100.00
28310;BME280;15571;50.974;13.936;2023-07-20T05:22:58;99778.81;;;18.62;100.00
28310;BME280;15571;50.974;13.936;2023-07-20T05:26:01;99781.75;;;18.56;100.00
28310;BME280;15571;50.974;13.936;2023-07-20T05:29:03;99779.97;;;18.56;100.00
28310;BME280;15571;50.974;13.936;2023-07-20T05:32:05;99781.13;;;18.50;100.00
28310;BME280;15571;50.974;13.936;2023-07-20T05:35:11;99786.22;;;18.55;100.00
28310;BME280;15571;50.974;13.936;2023-07-20T05:38:13;99780.69;;;18.60;100.00
28310;BME280;15571;50.974;13.936;2023-07-20T05:41:15;99778.69;;;18.65;100.00
28310;BME280;15571;50.974;13.936;2023-07-20T05:44:17;99783.81;;;18.49;100.00
28310;BME280;15571;50.974;13.936;2023-07-20T05:47:19;99778.38;;;18.52;100.00
28310;BME280;15571;50.974;13.936;2023-07-20T05:50:22;99787.06;;;18.56;100.00
28310;BME280;15571;50.974;13.936;2023-07-20T05:53:24;99784.09;;;18.62;100.00
28310;BME280;15571;50.974;13.936;2023-07-20T05:56:26;99780.34;;;18.87;100.00
28310;BME280;15571;50.974;13.936;2023-07-20T05:59:28;99780.97;;;18.73;100.00
28310;BME280;15571;50.974;13.936;2023-07-20T06:02:31;99784.84;;;18.85;100.00
28310;BME280;15571;50.974;13.936;2023-07-20T06:05:34;99793.53;;;18.69;100.00
28310;BME280;15571;50.974;13.936;2023-07-20T06:08:36;99803.91;;;18.74;100.00
28310;BME280;15571;50.974;13.936;2023-07-20T06:11:38;99801.84;;;18.80;100.00
28310;BME280;15571;50.974;13.936;2023-07-20T06:14:42;99794.38;;;18.89;100.00
28310;BME280;15571;50.974;13.936;2023-07-20T06:17:47;99782.84;;;19.09;100.00
28310;BME280;15571;50.974;13.936;2023-07-20T06:20:50;99783.38;;;18.98;100.00
28310;BME280;15571;50.974;13.936;2023-07-20T06:23:54;99780.84;;;19.14;100.00
28310;BME280;15571;50.974;13.936;2023-07-20T06:26:56;99777.97;;;19.19;100.00
28310;BME280;15571;50.974;13.936;2023-07-20T06:29:57;99789.31;;;19.03;100.00
28310;BME280;15571;50.974;13.936;2023-07-20T06:32:59;99800.03;;;18.81;100.00
28310;BME280;15571;50.974;13.936;2023-07-20T06:36:03;99791.75;;;19.08;100.00
28310;BME280;15571;50.974;13.936;2023-07-20T06:39:05;99797.47;;;19.18;100.00
28310;BME280;15571;50.974;13.936;2023-07-20T06:42:07;99794.28;;;19.28;100.00
28310;BME280;15571;50.974;13.936;2023-07-20T06:45:11;99797.78;;;19.66;100.00
28310;BME280;15571;50.974;13.936;2023-07-20T06:48:13;99795.00;;;19.86;100.00
28310;BME280;15571;50.974;13.936;2023-07-20T06:51:16;99792.41;;;19.85;100.00
28310;BME280;15571;50.974;13.936;2023-07-20T06:54:19;99812.22;;;19.60;100.00
28310;BME280;15571;50.974;13.936;2023-07-20T06:58:05;99852.13;;;18.42;100.00
28310;BME280;15571;50.974;13.936;2023-07-20T07:02:10;99859.09;;;18.03;100.00
28310;BME280;15571;50.974;13.936;2023-07-20T07:05:13;99857.81;;;17.92;100.00
28310;BME280;15571;50.974;13.936;2023-07-20T07:08:20;99845.97;;;18.00;100.00
28310;BME280;15571;50.974;13.936;2023-07-20T07:11:22;99857.06;;;18.10;100.00
28310;BME280;15571;50.974;13.936;2023-07-20T07:14:24;99853.28;;;18.16;100.00
28310;BME280;15571;50.974;13.936;2023-07-20T07:17:27;99854.06;;;18.18;100.00
28310;BME280;15571;50.974;13.936;2023-07-20T07:20:29;99849.44;;;18.63;100.00
28310;BME280;15571;50.974;13.936;2023-07-20T07:23:32;99843.19;;;18.85;100.00
28310;BME280;15571;50.974;13.936;2023-07-20T07:26:34;99848.53;;;19.23;100.00
28310;BME280;15571;50.974;13.936;2023-07-20T07:29:36;99844.09;;;19.23;100.00
28310;BME280;15571;50.974;13.936;2023-07-20T07:32:38;99845.41;;;19.32;100.00
28310;BME280;15571;50.974;13.936;2023-07-20T07:35:45;99843.44;;;19.18;100.00
28310;BME280;15571;50.974;13.936;2023-07-20T07:38:48;99845.91;;;19.40;100.00
28310;BME280;15571;50.974;13.936;2023-07-20T07:41:50;99841.88;;;19.51;100.00
28310;BME280;15571;50.974;13.936;2023-07-20T07:44:54;99850.03;;;19.65;100.00
28310;BME280;15571;50.974;13.936;2023-07-20T07:47:56;99850.06;;;19.83;100.00
28310;BME280;15571;50.974;13.936;2023-07-20T07:50:58;99847.47;;;19.81;100.00
28310;BME280;15571;50.974;13.936;2023-07-20T07:54:02;99834.84;;;20.04;100.00
28310;BME280;15571;50.974;13.936;2023-07-20T07:57:04;99845.41;;;20.23;100.00
28310;BME280;15571;50.974;13.936;2023-07-20T08:00:07;99827.97;;;20.17;100.00
28310;BME280;15571;50.974;13.936;2023-07-20T08:03:14;99836.16;;;20.30;100.00
28310;BME280;15571;50.974;13.936;2023-07-20T08:06:16;99835.38;;;20.46;100.00
28310;BME280;15571;50.974;13.936;2023-07-20T08:09:20;99827.22;;;20.49;100.00
28310;BME280;15571;50.974;13.936;2023-07-20T08:12:26;99836.91;;;20.50;100.00
28310;BME280;15571;50.974;13.936;2023-07-20T08:15:28;99827.66;;;20.41;100.00
28310;BME280;15571;50.974;13.936;2023-07-20T08:18:30;99834.31;;;19.97;100.00
28310;BME280;15571;50.974;13.936;2023-07-20T08:21:32;99847.03;;;19.54;100.00
28310;BME280;15571;50.974;13.936;2023-07-20T08:24:35;99850.78;;;19.50;100.00
28310;BME280;15571;50.974;13.936;2023-07-20T08:27:40;99851.06;;;19.43;100.00
28310;BME280;15571;50.974;13.936;2023-07-20T08:30:47;99842.47;;;19.75;100.00
28310;BME280;15571;50.974;13.936;2023-07-20T08:33:49;99836.31;;;19.74;100.00
28310;BME280;15571;50.974;13.936;2023-07-20T08:36:51;99848.84;;;19.90;100.00
28310;BME280;15571;50.974;13.936;2023-07-20T08:39:55;99840.94;;;19.88;100.00
28310;BME280;15571;50.974;13.936;2023-07-20T08:42:57;99851.78;;;19.84;100.00
28310;BME280;15571;50.974;13.936;2023-07-20T08:46:01;99855.88;;;19.91;100.00
28310;BME280;15571;50.974;13.936;2023-07-20T08:49:04;99849.34;;;19.98;100.00
28310;BME280;15571;50.974;13.936;2023-07-20T08:52:06;99856.03;;;20.05;100.00
28310;BME280;15571;50.974;13.936;2023-07-20T08:55:10;99844.63;;;20.21;100.00
28310;BME280;15571;50.974;13.936;2023-07-20T08:58:12;99842.00;;;20.55;100.00
28310;BME280;15571;50.974;13.936;2023-07-20T09:01:15;99826.91;;;20.55;100.00
28310;BME280;15571;50.974;13.936;2023-07-20T09:04:18;99825.34;;;20.84;100.00
28310;BME280;15571;50.974;13.936;2023-07-20T09:07:20;99824.34;;;21.03;100.00
28310;BME280;15571;50.974;13.936;2023-07-20T09:10:24;99814.88;;;21.45;100.00
28310;BME280;15571;50.974;13.936;2023-07-20T09:13:26;99819.66;;;21.71;100.00
28310;BME280;15571;50.974;13.936;2023-07-20T09:16:28;99819.16;;;21.48;100.00
28310;BME280;15571;50.974;13.936;2023-07-20T09:19:30;99823.81;;;21.44;100.00
28310;BME280;15571;50.974;13.936;2023-07-20T09:22:32;99822.03;;;21.29;100.00
28310;BME280;15571;50.974;13.936;2023-07-20T09:25:35;99819.53;;;21.10;100.00
28310;BME280;15571;50.974;13.936;2023-07-20T09:28:41;99823.63;;;21.80;100.00
28310;BME280;15571;50.974;13.936;2023-07-20T09:31:43;99815.47;;;21.97;100.00
28310;BME280;15571;50.974;13.936;2023-07-20T09:35:00;99807.59;;;22.24;100.00
28310;BME280;15571;50.974;13.936;2023-07-20T09:38:01;99809.31;;;22.26;100.00
28310;BME280;15571;50.974;13.936;2023-07-20T09:41:05;99805.78;;;22.11;100.00
28310;BME280;15571;50.974;13.936;2023-07-20T09:44:07;99812.38;;;22.19;100.00
28310;BME280;15571;50.974;13.936;2023-07-20T09:47:21;99803.09;;;21.96;100.00
28310;BME280;15571;50.974;13.936;2023-07-20T09:50:23;99812.31;;;21.60;100.00
28310;BME280;15571;50.974;13.936;2023-07-20T09:53:27;99810.50;;;21.60;100.00
28310;BME280;15571;50.974;13.936;2023-07-20T09:56:31;99815.88;;;21.75;100.00
28310;BME280;15571;50.974;13.936;2023-07-20T09:59:34;99810.44;;;22.07;100.00
28310;BME280;15571;50.974;13.936;2023-07-20T10:02:37;99814.44;;;22.00;100.00
28310;BME280;15571;50.974;13.936;2023-07-20T10:05:43;99811.97;;;22.11;100.00
28310;BME280;15571;50.974;13.936;2023-07-20T10:08:45;99809.59;;;22.21;100.00
28310;BME280;15571;50.974;13.936;2023-07-20T10:11:50;99802.41;;;22.37;100.00
28310;BME280;15571;50.974;13.936;2023-07-20T10:14:52;99804.59;;;22.45;100.00
28310;BME280;15571;50.974;13.936;2023-07-20T10:17:59;99801.50;;;22.08;100.00
28310;BME280;15571;50.974;13.936;2023-07-20T10:21:04;99811.69;;;22.30;100.00
28310;BME280;15571;50.974;13.936;2023-07-20T10:24:07;99810.91;;;22.59;100.00
28310;BME280;15571;50.974;13.936;2023-07-20T10:27:13;99812.56;;;22.31;100.00
28310;BME280;15571;50.974;13.936;2023-07-20T10:30:17;99806.91;;;22.51;100.00
28310;BME280;15571;50.974;13.936;2023-07-20T10:33:19;99820.47;;;22.32;100.00
28310;BME280;15571;50.974;13.936;2023-07-20T10:36:24;99809.56;;;21.45;100.00
28310;BME280;15571;50.974;13.936;2023-07-20T10:39:26;99811.69;;;21.39;100.00
28310;BME280;15571;50.974;13.936;2023-07-20T10:42:34;99807.66;;;21.64;100.00
28310;BME280;15571;50.974;13.936;2023-07-20T10:45:39;99806.22;;;21.88;100.00
28310;BME280;15571;50.974;13.936;2023-07-20T10:51:58;99809.31;;;22.11;100.00
28310;BME280;15571;50.974;13.936;2023-07-20T10:55:10;99795.28;;;21.93;100.00
28310;BME280;15571;50.974;13.936;2023-07-20T10:58:14;99795.78;;;22.14;100.00
28310;BME280;15571;50.974;13.936;2023-07-20T11:01:19;99797.31;;;22.18;100.00
28310;BME280;15571;50.974;13.936;2023-07-20T11:04:37;99794.56;;;22.20;100.00
28310;BME280;15571;50.974;13.936;2023-07-20T11:07:40;99794.63;;;21.59;100.00
28310;BME280;15571;50.974;13.936;2023-07-20T11:10:42;99799.84;;;21.60;100.00
28310;BME280;15571;50.974;13.936;2023-07-20T11:13:54;99797.44;;;21.40;100.00
28310;BME280;15571;50.974;13.936;2023-07-20T11:17:10;99793.22;;;21.68;100.00
28310;BME280;15571;50.974;13.936;2023-07-20T11:20:12;99789.03;;;21.64;100.00
28310;BME280;15571;50.974;13.936;2023-07-20T11:23:15;99789.50;;;22.01;100.00
28310;BME280;15571;50.974;13.936;2023-07-20T11:26:17;99796.75;;;21.68;100.00
28310;BME280;15571;50.974;13.936;2023-07-20T11:29:21;99799.03;;;21.12;100.00
28310;BME280;15571;50.974;13.936;2023-07-20T11:32:26;99808.03;;;21.25;100.00
28310;BME280;15571;50.974;13.936;2023-07-20T11:35:28;99802.47;;;20.98;100.00
28310;BME280;15571;50.974;13.936;2023-07-20T11:38:30;99812.31;;;21.12;100.00
28310;BME280;15571;50.974;13.936;2023-07-20T11:41:32;99829.78;;;20.17;100.00
28310;BME280;15571;50.974;13.936;2023-07-20T11:44:36;99845.63;;;19.47;100.00
28310;BME280;15571;50.974;13.936;2023-07-20T11:47:39;99864.66;;;18.99;100.00
28310;BME280;15571;50.974;13.936;2023-07-20T11:50:42;99884.75;;;18.84;100.00
28310;BME280;15571;50.974;13.936;2023-07-20T11:53:44;99898.31;;;18.57;100.00
28310;BME280;15571;50.974;13.936;2023-07-20T11:56:47;99910.31;;;18.66;100.00
28310;BME280;15571;50.974;13.936;2023-07-20T11:59:54;99904.59;;;18.75;100.00
28310;BME280;15571;50.974;13.936;2023-07-20T12:02:58;99892.44;;;18.90;100.00
28310;BME280;15571;50.974;13.936;2023-07-20T12:06:05;99881.16;;;19.25;100.00
28310;BME280;15571;50.974;13.936;2023-07-20T12:09:12;99867.44;;;19.53;100.00
28310;BME280;15571;50.974;13.936;2023-07-20T12:12:15;99871.72;;;19.56;100.00
28310;BME280;15571;50.974;13.936;2023-07-20T12:15:19;99861.91;;;19.39;100.00
28310;BME280;15571;50.974;13.936;2023-07-20T12:18:22;99856.97;;;19.68;100.00
28310;BME280;15571;50.974;13.936;2023-07-20T12:21:24;99852.91;;;20.15;100.00
28310;BME280;15571;50.974;13.936;2023-07-20T12:24:26;99864.31;;;20.34;100.00
28310;BME280;15571;50.974;13.936;2023-07-20T12:27:31;99850.66;;;20.58;100.00
28310;BME280;15571;50.974;13.936;2023-07-20T12:30:35;99848.97;;;20.57;100.00
28310;BME280;15571;50.974;13.936;2023-07-20T12:33:37;99845.31;;;20.42;100.00
28310;BME280;15571;50.974;13.936;2023-07-20T12:36:39;99852.88;;;20.50;100.00
28310;BME280;15571;50.974;13.936;2023-07-20T12:39:41;99856.06;;;20.57;100.00
28310;BME280;15571;50.974;13.936;2023-07-20T12:42:45;99863.56;;;20.66;100.00
28310;BME280;15571;50.974;13.936;2023-07-20T12:45:48;99850.50;;;20.61;100.00
28310;BME280;15571;50.974;13.936;2023-07-20T12:48:50;99834.38;;;20.64;100.00
28310;BME280;15571;50.974;13.936;2023-07-20T12:51:52;99851.81;;;20.19;100.00
28310;BME280;15571;50.974;13.936;2023-07-20T12:54:54;99865.19;;;20.00;100.00
28310;BME280;15571;50.974;13.936;2023-07-20T12:57:56;99891.19;;;19.18;100.00
28310;BME280;15571;50.974;13.936;2023-07-20T13:00:59;99900.28;;;18.93;100.00
28310;BME280;15571;50.974;13.936;2023-07-20T13:04:01;99919.38;;;18.81;100.00
28310;BME280;15571;50.974;13.936;2023-07-20T13:07:04;99927.66;;;18.94;100.00
28310;BME280;15571;50.974;13.936;2023-07-20T13:10:06;99950.13;;;18.85;100.00
28310;BME280;15571;50.974;13.936;2023-07-20T13:13:08;99960.53;;;18.69;100.00
28310;BME280;15571;50.974;13.936;2023-07-20T13:16:12;99932.97;;;18.94;100.00
28310;BME280;15571;50.974;13.936;2023-07-20T13:19:15;99913.13;;;19.03;100.00
28310;BME280;15571;50.974;13.936;2023-07-20T13:22:17;99904.09;;;19.26;100.00
28310;BME280;15571;50.974;13.936;2023-07-20T13:25:20;99893.53;;;19.43;100.00
28310;BME280;15571;50.974;13.936;2023-07-20T13:28:22;99900.72;;;19.60;100.00
28310;BME280;15571;50.974;13.936;2023-07-20T13:31:25;99890.03;;;19.80;100.00
28310;BME280;15571;50.974;13.936;2023-07-20T13:34:28;99867.28;;;19.93;100.00
28310;BME280;15571;50.974;13.936;2023-07-20T13:37:30;99862.44;;;20.36;100.00
28310;BME280;15571;50.974;13.936;2023-07-20T13:40:31;99861.41;;;20.90;100.00
28310;BME280;15571;50.974;13.936;2023-07-20T13:43:33;99852.66;;;21.04;100.00
28310;BME280;15571;50.974;13.936;2023-07-20T13:46:40;99842.91;;;21.05;100.00
28310;BME280;15571;50.974;13.936;2023-07-20T13:49:43;99844.34;;;21.26;100.00
28310;BME280;15571;50.974;13.936;2023-07-20T13:52:45;99847.19;;;21.23;100.00
28310;BME280;15571;50.974;13.936;2023-07-20T13:55:50;99844.00;;;21.33;100.00
28310;BME280;15571;50.974;13.936;2023-07-20T13:58:53;99838.25;;;21.24;100.00
28310;BME280;15571;50.974;13.936;2023-07-20T14:01:56;99841.78;;;21.25;100.00
28310;BME280;15571;50.974;13.936;2023-07-20T14:05:01;99851.22;;;21.30;100.00
28310;BME280;15571;50.974;13.936;2023-07-20T14:08:04;99856.97;;;21.39;100.00
28310;BME280;15571;50.974;13.936;2023-07-20T14:11:06;99850.16;;;21.49;100.00
28310;BME280;15571;50.974;13.936;2023-07-20T14:14:09;99860.25;;;21.44;100.00
28310;BME280;15571;50.974;13.936;2023-07-20T14:17:14;99865.56;;;21.44;100.00
28310;BME280;15571;50.974;13.936;2023-07-20T14:20:16;99856.47;;;21.64;100.00
28310;BME280;15571;50.974;13.936;2023-07-20T14:23:18;99857.22;;;21.50;100.00
28310;BME280;15571;50.974;13.936;2023-07-20T14:26:20;99845.25;;;21.57;100.00
28310;BME280;15571;50.974;13.936;2023-07-20T14:29:22;99852.59;;;21.70;100.00
28310;BME280;15571;50.974;13.936;2023-07-20T14:32:25;99851.63;;;21.71;100.00
28310;BME280;15571;50.974;13.936;2023-07-20T14:35:30;99851.03;;;21.66;100.00
28310;BME280;15571;50.974;13.936;2023-07-20T14:38:55;99865.13;;;21.36;100.00
28310;BME280;15571;50.974;13.936;2023-07-20T14:41:57;99857.22;;;21.18;100.00
28310;BME280;15571;50.974;13.936;2023-07-20T14:44:59;99861.84;;;21.14;100.00
28310;BME280;15571;50.974;13.936;2023-07-20T14:48:04;99857.13;;;21.36;100.00
28310;BME280;15571;50.974;13.936;2023-07-20T14:51:06;99854.72;;;21.47;100.00
28310;BME280;15571;50.974;13.936;2023-07-20T14:54:08;99859.22;;;21.63;100.00
28310;BME280;15571;50.974;13.936;2023-07-20T14:57:10;99857.22;;;21.66;100.00
28310;BME280;15571;50.974;13.936;2023-07-20T15:00:15;99850.44;;;21.60;100.00
28310;BME280;15571;50.974;13.936;2023-07-20T15:03:18;99839.13;;;22.18;100.00
28310;BME280;15571;50.974;13.936;2023-07-20T15:06:20;99849.91;;;22.31;100.00
28310;BME280;15571;50.974;13.936;2023-07-20T15:23:29;99834.16;;;21.81;100.00
28310;BME280;15571;50.974;13.936;2023-07-20T15:26:31;99829.88;;;21.79;100.00
28310;BME280;15571;50.974;13.936;2023-07-20T15:29:33;99828.97;;;21.64;100.00
28310;BME280;15571;50.974;13.936;2023-07-20T15:32:36;99828.31;;;21.90;100.00
28310;BME280;15571;50.974;13.936;2023-07-20T15:35:38;99825.81;;;21.87;100.00
28310;BME280;15571;50.974;13.936;2023-07-20T15:38:43;99822.66;;;22.26;100.00
28310;BME280;15571;50.974;13.936;2023-07-20T15:41:45;99809.75;;;21.89;100.00
28310;BME280;15571;50.974;13.936;2023-07-20T15:44:47;99811.69;;;22.16;100.00
28310;BME280;15571;50.974;13.936;2023-07-20T15:47:49;99801.75;;;21.89;100.00
28310;BME280;15571;50.974;13.936;2023-07-20T15:50:51;99797.16;;;21.76;100.00
28310;BME280;15571;50.974;13.936;2023-07-20T15:53:54;99800.41;;;21.66;100.00
28310;BME280;15571;50.974;13.936;2023-07-20T15:56:56;99801.66;;;21.44;100.00
28310;BME280;15571;50.974;13.936;2023-07-20T15:59:58;99794.22;;;21.81;100.00
28310;BME280;15571;50.974;13.936;2023-07-20T16:03:00;99806.09;;;22.20;100.00
28310;BME280;15571;50.974;13.936;2023-07-20T16:06:02;99801.91;;;22.31;100.00
28310;BME280;15571;50.974;13.936;2023-07-20T16:09:05;99803.97;;;22.26;100.00